Time;durP1;ratioP1;P1;durP2;ratioP2;P2;SDS_P1;SDS_P2;PMS_P1;PMS_P2;Temp;Humidity;BMP_temperature;BMP_pressure;BME280_temperature;BME280_humidity;BME280_pressure;Samples;Min_cycle;Max_cycle;Signal;HPM_P1;HPM_P2
2021/09/24 00:00:07;;;;;;;12.13;2.25;;;;;;;10.86;78.84;99413.28;1765693;80;21063;-86
2021/09/24 00:02:36;;;;;;;22.30;2.77;;;;;;;10.83;78.89;99406.72;1759564;81;21048;-86
2021/09/24 00:05:06;;;;;;;14.20;2.77;;;;;;;10.77;78.89;99416.34;1757322;81;21135;-86
2021/09/24 00:07:33;;;;;;;12.63;3.58;;;;;;;10.72;78.94;99419.39;1757817;81;21071;-86
2021/09/24 00:10:05;;;;;;;13.93;2.40;;;;;;;10.68;79.10;99437.81;1736058;81;21538;-87
2021/09/24 00:12:35;;;;;;;13.75;2.83;;;;;;;10.72;79.36;99428.19;1757881;81;21067;-87
2021/09/24 00:15:03;;;;;;;12.03;3.27;;;;;;;10.77;79.36;99433.45;1757326;80;21514;-87
2021/09/24 00:17:31;;;;;;;12.55;2.35;;;;;;;10.75;79.32;99424.67;1735989;81;21045;-87
2021/09/24 00:19:58;;;;;;;14.20;2.83;;;;;;;10.74;79.43;99451.87;1757858;81;21067;-87
2021/09/24 00:22:27;;;;;;;13.10;3.10;;;;;;;10.73;79.51;99451.42;1757073;81;21067;-86
2021/09/24 00:24:54;;;;;;;13.08;2.87;;;;;;;10.69;79.58;99446.14;1757537;81;21036;-86
2021/09/24 00:27:23;;;;;;;11.53;2.65;;;;;;;10.67;79.58;99434.73;1757376;81;21012;-87
2021/09/24 00:29:49;;;;;;;10.25;2.98;;;;;;;10.66;79.70;99461.03;1757477;80;21149;-87
2021/09/24 00:32:16;;;;;;;11.43;2.87;;;;;;;10.66;79.82;99456.67;1757636;81;21051;-86
2021/09/24 00:34:48;;;;;;;12.43;2.98;;;;;;;10.67;79.88;99461.05;1735877;81;21061;-87
2021/09/24 00:37:13;;;;;;;15.88;3.25;;;;;;;10.68;79.95;99466.77;1756948;80;21059;-86
2021/09/24 00:39:42;;;;;;;11.10;2.60;;;;;;;10.70;80.04;99472.91;1744884;80;21031;-86
2021/09/24 00:42:08;;;;;;;12.47;2.77;;;;;;;10.70;80.02;99468.97;1770957;80;21087;-86
2021/09/24 00:44:52;;;;;;;14.07;3.25;;;;;;;10.70;80.10;99473.36;1772097;80;22421;-86
2021/09/24 00:47:22;;;;;;;11.45;2.58;;;;;;;10.73;80.12;99493.53;1772076;80;21804;-86
2021/09/24 00:49:47;;;;;;;16.15;3.33;;;;;;;10.74;80.15;99498.81;1771627;80;21530;-86
2021/09/24 00:52:18;;;;;;;10.05;2.98;;;;;;;10.76;80.16;99503.64;1772427;80;21035;-86
2021/09/24 00:54:47;;;;;;;14.03;2.90;;;;;;;10.77;80.18;99501.44;1773171;80;21063;-86
2021/09/24 00:57:14;;;;;;;14.70;2.77;;;;;;;10.80;80.25;99508.48;1772729;80;21082;-86
2021/09/24 00:59:41;;;;;;;15.40;2.67;;;;;;;10.81;80.10;99511.13;1749345;80;22667;-86
2021/09/24 01:02:08;;;;;;;9.75;2.47;;;;;;;10.82;80.09;99514.63;1772913;80;21090;-86
2021/09/24 01:04:35;;;;;;;7.97;2.15;;;;;;;10.84;80.08;99515.52;1772898;80;21054;-85
2021/09/24 01:07:04;;;;;;;13.78;2.75;;;;;;;10.85;80.06;99518.16;1772790;80;21112;-85
2021/09/24 01:09:31;;;;;;;12.68;2.70;;;;;;;10.84;80.02;99524.28;1772712;80;21008;-85
2021/09/24 01:12:02;;;;;;;9.23;2.55;;;;;;;10.81;79.98;99528.65;1772856;80;21794;-85
2021/09/24 01:14:29;;;;;;;13.15;2.52;;;;;;;10.81;80.10;99534.82;1771598;80;21078;-85
2021/09/24 01:17:00;;;;;;;12.33;2.50;;;;;;;10.80;80.12;99542.70;1772830;80;21568;-85
2021/09/24 01:19:29;;;;;;;13.05;2.52;;;;;;;10.80;80.21;99542.26;1772481;80;21099;-85
2021/09/24 01:21:54;;;;;;;11.95;2.70;;;;;;;10.81;80.23;99554.97;1772601;80;21059;-86
2021/09/24 01:24:24;;;;;;;9.33;2.22;;;;;;;10.85;80.25;99550.20;1773146;80;22497;-86
2021/09/24 01:26:57;;;;;;;20.37;4.08;;;;;;;10.86;80.25;99546.67;1772287;80;21568;-86
2021/09/24 01:29:27;;;;;;;14.23;2.80;;;;;;;10.86;80.18;99555.88;1748362;80;21336;-86
2021/09/24 01:31:57;;;;;;;13.80;2.90;;;;;;;10.88;80.30;99564.22;1772798;80;21043;-87
2021/09/24 01:34:22;;;;;;;13.78;2.30;;;;;;;10.95;80.40;99561.64;1772454;80;21062;-86
2021/09/24 01:36:49;;;;;;;10.85;3.05;;;;;;;11.02;80.32;99560.80;1772826;80;21745;-87
2021/09/24 01:39:19;;;;;;;11.93;2.85;;;;;;;11.06;80.29;99566.06;1770978;80;21035;-86
2021/09/24 01:41:48;;;;;;;11.88;2.30;;;;;;;11.08;80.13;99564.31;1767775;81;21552;-86
2021/09/24 01:44:19;;;;;;;7.72;2.30;;;;;;;11.07;79.95;99570.89;1743077;81;21055;-87
2021/09/24 01:46:46;;;;;;;12.40;2.55;;;;;;;11.04;79.89;99578.80;1767548;80;21016;-87
2021/09/24 01:49:17;;;;;;;8.28;2.50;;;;;;;11.04;79.90;99584.06;1744196;81;21917;-87
2021/09/24 01:51:44;;;;;;;12.20;2.60;;;;;;;11.02;79.87;99578.78;1767077;81;21183;-85
2021/09/24 01:54:13;;;;;;;6.53;2.22;;;;;;;11.00;79.86;99580.95;1769053;80;21070;-86
2021/09/24 01:56:40;;;;;;;15.43;2.87;;;;;;;10.96;79.96;99593.25;1744259;81;21118;-86
2021/09/24 01:59:10;;;;;;;10.93;2.65;;;;;;;10.96;80.08;99589.71;1768160;81;21027;-87
2021/09/24 02:01:42;;;;;;;11.10;2.70;;;;;;;10.96;80.05;99588.39;1768074;81;21714;-85
2021/09/24 02:04:09;;;;;;;13.47;2.70;;;;;;;10.94;80.12;99593.64;1768062;81;21012;-86
2021/09/24 02:06:39;;;;;;;11.50;2.67;;;;;;;10.93;80.15;99595.85;1767687;81;21587;-86
2021/09/24 02:09:06;;;;;;;15.43;3.27;;;;;;;10.92;80.19;99591.45;1743292;81;21059;-86
2021/09/24 02:11:33;;;;;;;9.75;2.65;;;;;;;10.91;80.25;99596.28;1767442;81;21095;-85
2021/09/24 02:14:00;;;;;;;10.05;2.70;;;;;;;10.89;80.22;99602.85;1767540;80;21808;-85
2021/09/24 02:16:26;;;;;;;12.05;2.47;;;;;;;10.88;80.27;99597.58;1767361;81;21043;-85
2021/09/24 02:18:55;;;;;;;12.82;2.45;;;;;;;10.87;80.30;99603.28;1767571;81;21051;-85
2021/09/24 02:21:25;;;;;;;11.38;2.58;;;;;;;10.86;80.27;99600.19;1767619;80;21114;-85
2021/09/24 02:23:53;;;;;;;13.43;2.30;;;;;;;10.86;80.32;99606.77;1767053;81;21055;-85
2021/09/24 02:26:19;;;;;;;15.90;2.60;;;;;;;10.85;80.34;99612.06;1756336;80;23492;-86
2021/09/24 02:28:46;;;;;;;15.55;2.33;;;;;;;10.84;80.38;99613.78;1762123;80;21635;-85
2021/09/24 02:31:13;;;;;;;8.25;2.17;;;;;;;10.85;80.40;99619.95;1765841;81;21273;-85
2021/09/24 02:33:40;;;;;;;12.53;2.40;;;;;;;10.85;80.38;99634.44;1767345;81;21090;-87
2021/09/24 02:36:08;;;;;;;8.43;2.22;;;;;;;10.84;80.38;99633.53;1767636;81;21118;-86
2021/09/24 02:38:38;;;;;;;10.85;2.95;;;;;;;10.84;80.37;99638.80;1767380;80;21862;-86
2021/09/24 02:41:04;;;;;;;13.68;2.95;;;;;;;10.87;80.40;99642.77;1771138;80;21048;-86
2021/09/24 02:43:36;;;;;;;8.90;2.05;;;;;;;10.88;80.34;99648.47;1772260;80;21047;-86
2021/09/24 02:46:01;;;;;;;13.30;2.67;;;;;;;10.88;80.32;99647.59;1771242;80;21043;-86
2021/09/24 02:48:31;;;;;;;12.80;2.70;;;;;;;10.87;80.38;99645.41;1771926;80;21066;-86
2021/09/24 02:50:58;;;;;;;12.75;2.45;;;;;;;10.87;80.36;99649.80;1772182;80;22475;-86
2021/09/24 02:53:25;;;;;;;13.48;2.00;;;;;;;10.86;80.36;99656.80;1772003;80;21105;-86
2021/09/24 02:55:56;;;;;;;11.30;2.67;;;;;;;10.87;80.34;99653.75;1772026;80;21074;-86
2021/09/24 02:58:20;;;;;;;11.50;2.30;;;;;;;10.87;80.38;99652.43;1771548;80;21083;-85
2021/09/24 03:00:47;;;;;;;13.30;2.52;;;;;;;10.87;80.36;99657.70;1772474;80;21051;-86
2021/09/24 03:03:14;;;;;;;10.05;2.83;;;;;;;10.86;80.35;99657.23;1772601;80;21821;-86
2021/09/24 03:06:11;;;;;;;10.28;2.47;;;;;;;10.84;80.39;99666.88;1772554;80;21039;-89
2021/09/24 03:08:41;;;;;;;8.85;2.33;;;;;;;10.85;80.45;99670.84;1741552;80;21046;-86
2021/09/24 03:11:08;;;;;;;12.15;2.70;;;;;;;10.85;80.38;99673.48;1772413;80;21134;-87
2021/09/24 03:13:35;;;;;;;15.10;2.35;;;;;;;10.86;80.43;99675.22;1772460;80;20995;-86
2021/09/24 03:16:02;;;;;;;9.63;2.60;;;;;;;10.86;80.36;99683.12;1772493;80;22362;-86
2021/09/24 03:18:28;;;;;;;13.58;2.62;;;;;;;10.85;80.41;99681.37;1772268;80;21607;-86
2021/09/24 03:20:59;;;;;;;16.48;2.87;;;;;;;10.85;80.38;99669.53;1772553;80;21197;-86
2021/09/24 03:23:24;;;;;;;13.00;2.80;;;;;;;10.84;80.32;99665.56;1772106;80;21019;-85
2021/09/24 03:25:54;;;;;;;14.05;2.77;;;;;;;10.84;80.45;99676.96;1772857;80;21027;-85
2021/09/24 03:28:23;;;;;;;15.63;3.40;;;;;;;10.85;80.35;99684.45;1772243;80;21795;-85
2021/09/24 03:30:48;;;;;;;10.00;3.00;;;;;;;10.85;80.34;99681.81;1772321;80;21059;-85
2021/09/24 03:33:16;;;;;;;17.45;3.20;;;;;;;10.88;80.48;99681.81;1749341;80;21027;-86
2021/09/24 03:35:43;;;;;;;13.30;3.33;;;;;;;10.90;80.40;99693.23;1772972;80;21075;-85
2021/09/24 03:38:12;;;;;;;11.83;2.60;;;;;;;10.91;80.38;99697.64;1747851;80;21043;-86
2021/09/24 03:40:39;;;;;;;21.52;3.00;;;;;;;10.91;80.37;99691.06;1772720;80;21864;-85
2021/09/24 03:43:06;;;;;;;13.32;2.80;;;;;;;10.90;80.36;99691.92;1772624;80;21027;-86
2021/09/24 03:45:33;;;;;;;15.78;3.00;;;;;;;10.91;80.33;99695.02;1772972;80;21098;-86
2021/09/24 03:48:00;;;;;;;13.58;2.80;;;;;;;10.89;80.32;99684.47;1773032;80;21024;-86
2021/09/24 03:50:27;;;;;;;13.58;3.20;;;;;;;10.89;80.31;99691.49;1773177;80;21023;-86
2021/09/24 03:52:53;;;;;;;12.58;2.67;;;;;;;10.89;80.42;99692.81;1773038;80;21704;-86
2021/09/24 03:55:20;;;;;;;17.98;3.52;;;;;;;10.89;80.48;99687.09;1748942;80;21581;-85
2021/09/24 03:57:50;;;;;;;13.72;2.52;;;;;;;10.91;80.39;99688.87;1772853;80;21122;-84
2021/09/24 04:00:16;;;;;;;11.10;2.62;;;;;;;10.89;80.38;99695.00;1772265;80;21062;-84
2021/09/24 04:02:45;;;;;;;15.98;2.90;;;;;;;10.91;80.46;99691.51;1741156;80;21075;-84
2021/09/24 04:05:36;;;;;;;13.28;2.92;;;;;;;10.92;80.47;99695.44;1772228;80;21795;-84
2021/09/24 04:07:58;;;;;;;12.05;2.45;;;;;;;10.93;80.45;99694.59;1682086;84;21680;-84
2021/09/24 04:10:42;;;;;;;14.53;2.92;;;;;;;10.93;80.50;99697.22;1772455;80;21118;-82
2021/09/24 04:13:20;;;;;;;15.72;2.65;;;;;;;10.96;80.52;99698.98;1765162;80;21016;-82
2021/09/24 04:15:41;;;;;;;14.07;2.65;;;;;;;10.98;80.56;99699.45;1760622;80;21067;-82
2021/09/24 04:18:10;;;;;;;17.73;2.80;;;;;;;11.01;80.61;99702.09;1772350;80;22361;-85
2021/09/24 04:20:37;;;;;;;11.03;3.08;;;;;;;11.07;80.61;99713.09;1770051;80;21512;-82
2021/09/24 04:23:04;;;;;;;11.15;3.20;;;;;;;11.11;80.58;99700.38;1772214;80;21016;-81
2021/09/24 04:25:34;;;;;;;13.10;2.67;;;;;;;11.14;80.46;99704.81;1772486;80;21102;-81
2021/09/24 04:28:01;;;;;;;13.93;2.15;;;;;;;11.16;80.45;99703.06;1771896;80;21039;-93
2021/09/24 04:30:35;;;;;;;12.53;2.58;;;;;;;11.20;80.47;99706.16;1772963;80;21814;-90
2021/09/24 04:33:05;;;;;;;13.53;3.17;;;;;;;11.23;80.50;99707.05;1772660;80;21024;-88
2021/09/24 04:35:40;;;;;;;11.30;2.22;;;;;;;11.29;80.43;99704.89;1772558;80;21059;-93
2021/09/24 04:38:09;;;;;;;13.72;2.83;;;;;;;11.33;80.32;99701.83;1773276;80;21043;-91
2021/09/24 04:40:41;;;;;;;16.75;2.92;;;;;;;11.36;80.30;99704.05;1779883;77;21066;-90
2021/09/24 04:43:07;;;;;;;15.38;2.98;;;;;;;11.40;80.20;99708.45;1847239;77;21768;-92
2021/09/24 04:45:37;;;;;;;17.20;3.15;;;;;;;11.41;80.10;99719.45;1837253;77;21023;-91
2021/09/24 04:48:06;;;;;;;12.13;2.98;;;;;;;11.43;80.04;99716.39;1835071;78;21051;-82
2021/09/24 04:50:31;;;;;;;12.85;3.20;;;;;;;11.46;80.06;99717.70;1834185;78;21504;-81
2021/09/24 04:52:58;;;;;;;11.40;3.42;;;;;;;11.53;80.06;99719.06;1835161;78;21046;-81
2021/09/24 04:55:25;;;;;;;13.55;2.60;;;;;;;11.60;79.98;99715.56;1835158;77;21797;-82
2021/09/24 04:57:53;;;;;;;10.78;2.55;;;;;;;11.68;79.89;99727.03;1838105;77;21039;-82
2021/09/24 05:00:20;;;;;;;18.42;3.27;;;;;;;11.78;79.83;99738.05;1835346;78;21067;-83
2021/09/24 05:02:47;;;;;;;10.93;3.27;;;;;;;11.87;79.67;99719.63;1835196;78;21461;-83
2021/09/24 05:05:15;;;;;;;10.40;2.85;;;;;;;11.97;79.52;99731.11;1834525;77;21054;-83
2021/09/24 05:07:42;;;;;;;10.35;2.80;;;;;;;12.08;79.34;99746.97;1835113;78;21742;-83
2021/09/24 05:10:13;;;;;;;15.30;2.67;;;;;;;12.15;79.15;99744.80;1838144;77;21050;-83
2021/09/24 05:12:40;;;;;;;19.90;2.72;;;;;;;12.22;78.95;99731.20;1835096;78;21058;-84
2021/09/24 05:15:09;;;;;;;10.28;2.27;;;;;;;12.31;78.76;99738.23;1834999;78;21054;-83
2021/09/24 05:17:35;;;;;;;9.58;2.55;;;;;;;12.36;78.59;99734.72;1835158;78;21124;-83
2021/09/24 05:20:03;;;;;;;15.08;2.70;;;;;;;12.41;78.34;99751.89;1835018;78;22484;-86
2021/09/24 05:22:33;;;;;;;11.85;2.98;;;;;;;12.45;78.26;99747.92;1835178;77;21491;-84
2021/09/24 05:24:59;;;;;;;11.88;2.40;;;;;;;12.49;78.12;99754.54;1834110;77;21691;-84
2021/09/24 05:27:26;;;;;;;9.78;2.15;;;;;;;12.50;78.03;99769.06;1812098;78;21101;-82
2021/09/24 05:29:53;;;;;;;10.78;3.45;;;;;;;12.54;77.96;99775.23;1715870;81;21023;-83
2021/09/24 05:32:22;;;;;;;8.10;2.27;;;;;;;12.56;77.85;99767.74;1795591;79;21768;-83
2021/09/24 05:34:49;;;;;;;10.63;2.70;;;;;;;12.59;77.74;99770.40;1772704;80;21054;-83
2021/09/24 05:37:19;;;;;;;8.50;1.82;;;;;;;12.62;77.66;99774.79;1772751;80;21106;-83
2021/09/24 05:39:48;;;;;;;8.55;2.37;;;;;;;12.64;77.52;99775.22;1750516;80;21090;-83
2021/09/24 05:42:18;;;;;;;9.20;2.70;;;;;;;12.70;77.43;99770.83;1772619;80;21063;-83
2021/09/24 05:44:46;;;;;;;12.40;2.80;;;;;;;12.66;77.33;99775.67;1772708;80;21810;-84
2021/09/24 05:47:12;;;;;;;8.65;2.37;;;;;;;12.75;77.26;99795.48;1772173;80;21591;-84
2021/09/24 05:49:39;;;;;;;10.48;2.72;;;;;;;12.79;77.10;99793.28;1795469;79;21016;-83
2021/09/24 05:52:08;;;;;;;6.17;1.92;;;;;;;12.82;76.84;99808.70;1767704;80;21153;-84
2021/09/24 05:54:34;;;;;;;9.13;1.82;;;;;;;12.86;76.72;99816.18;1762795;81;21021;-83
2021/09/24 05:57:01;;;;;;;11.18;2.45;;;;;;;12.91;76.61;99829.38;1772602;80;21765;-84
2021/09/24 05:59:27;;;;;;;10.08;2.47;;;;;;;12.95;76.41;99834.68;1772541;80;21046;-84
2021/09/24 06:01:54;;;;;;;9.15;3.10;;;;;;;12.99;76.29;99830.28;1772649;80;21031;-84
2021/09/24 06:04:21;;;;;;;8.53;2.58;;;;;;;13.01;76.22;99835.99;1772851;80;22304;-84
2021/09/24 06:06:48;;;;;;;7.20;2.20;;;;;;;13.03;76.15;99833.36;1772640;80;21109;-84
2021/09/24 06:09:15;;;;;;;10.55;2.40;;;;;;;13.07;75.89;99835.56;1772678;80;21836;-84
2021/09/24 06:11:41;;;;;;;8.70;2.83;;;;;;;13.09;75.85;99850.52;1772789;80;21518;-84
2021/09/24 06:14:08;;;;;;;9.63;2.33;;;;;;;13.10;75.76;99835.13;1772986;80;21529;-83
2021/09/24 06:16:35;;;;;;;10.80;2.58;;;;;;;13.13;75.82;99846.13;1772795;80;21043;-84
2021/09/24 06:19:01;;;;;;;8.98;2.83;;;;;;;13.15;75.60;99851.84;1772723;80;21474;-84
2021/09/24 06:21:31;;;;;;;10.25;3.05;;;;;;;13.18;75.55;99843.05;1772722;80;21770;-84
2021/09/24 06:23:57;;;;;;;9.25;2.40;;;;;;;13.21;75.56;99839.97;1772149;80;21075;-84
2021/09/24 06:26:24;;;;;;;10.53;2.80;;;;;;;13.25;75.52;99847.87;1772524;80;21623;-84
2021/09/24 06:28:50;;;;;;;10.35;2.42;;;;;;;13.28;75.41;99847.44;1772328;80;21004;-83
2021/09/24 06:31:17;;;;;;;7.90;2.08;;;;;;;13.31;75.44;99852.77;1772563;80;22304;-83
2021/09/24 06:33:44;;;;;;;11.70;2.62;;;;;;;13.34;75.26;99861.13;1772513;80;21897;-83
2021/09/24 06:36:17;;;;;;;7.20;2.05;;;;;;;13.36;75.22;99858.03;1772639;80;21633;-84
2021/09/24 06:38:39;;;;;;;10.00;2.90;;;;;;;13.40;75.18;99868.62;1771727;80;21425;-83
2021/09/24 06:41:06;;;;;;;8.45;2.50;;;;;;;13.45;75.06;99879.63;1776519;80;21050;-84
2021/09/24 06:43:32;;;;;;;8.48;2.58;;;;;;;13.49;74.89;99868.16;1748934;80;21082;-84
2021/09/24 06:46:00;;;;;;;7.67;2.20;;;;;;;13.52;74.70;99874.78;1773021;80;21810;-84
2021/09/24 06:48:27;;;;;;;13.40;2.80;;;;;;;13.55;74.69;99869.05;1772699;80;21079;-83
2021/09/24 06:50:54;;;;;;;6.53;2.08;;;;;;;13.58;74.58;99882.69;1801466;79;21038;-83
2021/09/24 06:53:20;;;;;;;6.53;2.20;;;;;;;13.63;74.44;99878.70;1801305;79;21519;-84
2021/09/24 06:55:47;;;;;;;6.20;2.12;;;;;;;13.66;74.29;99890.61;1801549;79;21035;-84
2021/09/24 06:58:14;;;;;;;9.90;2.72;;;;;;;13.70;74.13;99889.72;1801374;79;21721;-83
2021/09/24 07:00:40;;;;;;;8.48;2.15;;;;;;;13.73;74.10;99885.31;1802241;79;20988;-84
2021/09/24 07:03:08;;;;;;;7.42;1.85;;;;;;;13.77;74.03;99894.99;1796290;79;21059;-83
2021/09/24 07:05:34;;;;;;;8.30;2.27;;;;;;;13.76;73.85;99902.51;1795839;79;21708;-83
2021/09/24 07:08:01;;;;;;;7.62;1.92;;;;;;;13.84;73.55;99898.52;1795726;79;21105;-84
2021/09/24 07:10:28;;;;;;;12.63;2.35;;;;;;;13.87;73.45;99891.91;1795620;79;21937;-84
2021/09/24 07:12:55;;;;;;;11.80;2.50;;;;;;;13.90;73.34;99897.62;1795667;79;21086;-83
2021/09/24 07:15:22;;;;;;;7.12;2.17;;;;;;;13.94;73.11;99903.34;1795770;79;21058;-84
2021/09/24 07:17:49;;;;;;;10.43;2.30;;;;;;;13.96;73.03;99909.52;1795524;79;21503;-83
2021/09/24 07:20:16;;;;;;;7.55;1.80;;;;;;;13.97;73.09;99900.25;1795481;79;21242;-84
2021/09/24 07:22:42;;;;;;;6.20;2.22;;;;;;;14.00;72.95;99900.25;1795728;79;22177;-83
2021/09/24 07:25:10;;;;;;;8.05;1.72;;;;;;;14.04;72.73;99899.81;1795535;79;21095;-84
2021/09/24 07:27:36;;;;;;;7.95;2.20;;;;;;;14.07;72.68;99902.87;1795729;79;21051;-83
2021/09/24 07:30:05;;;;;;;10.53;2.17;;;;;;;14.12;72.56;99905.08;1795227;79;21036;-83
2021/09/24 07:32:32;;;;;;;6.60;1.80;;;;;;;14.16;72.35;99915.63;1795914;79;21091;-84
2021/09/24 07:34:59;;;;;;;6.85;1.80;;;;;;;14.21;72.03;99920.93;1795655;79;21682;-84
2021/09/24 07:37:26;;;;;;;7.67;1.77;;;;;;;14.26;71.96;99916.48;1795516;79;21063;-84
2021/09/24 07:39:52;;;;;;;6.05;1.72;;;;;;;14.30;71.78;99931.91;1795494;79;21015;-84
2021/09/24 07:42:19;;;;;;;8.80;1.95;;;;;;;14.33;71.74;99939.41;1795133;79;21118;-84
2021/09/24 07:44:46;;;;;;;10.18;2.22;;;;;;;14.37;71.64;99933.20;1795594;79;21035;-83
2021/09/24 07:47:13;;;;;;;6.85;2.08;;;;;;;14.42;71.59;99941.59;1795365;79;22457;-83
2021/09/24 07:49:41;;;;;;;7.40;2.52;;;;;;;14.46;71.40;99940.70;1795580;79;21023;-84
2021/09/24 07:52:08;;;;;;;9.58;2.00;;;;;;;14.49;71.59;99948.61;1795366;79;21532;-86
2021/09/24 07:54:35;;;;;;;13.43;2.05;;;;;;;14.55;71.16;99964.49;1795446;79;21035;-84
2021/09/24 07:57:01;;;;;;;9.10;2.00;;;;;;;14.53;71.02;99951.25;1795429;79;21106;-83
2021/09/24 07:59:30;;;;;;;8.10;2.12;;;;;;;14.57;71.19;99984.81;1795509;79;21719;-84
2021/09/24 08:01:56;;;;;;;10.43;2.62;;;;;;;14.60;70.95;99965.81;1795534;79;21337;-83
2021/09/24 08:04:23;;;;;;;9.15;2.40;;;;;;;14.63;70.93;99981.26;1795456;79;21113;-84
2021/09/24 08:06:50;;;;;;;12.40;2.12;;;;;;;14.65;70.76;99977.28;1795587;79;21211;-84
2021/09/24 08:09:17;;;;;;;8.58;2.05;;;;;;;14.67;70.64;99969.75;1795570;79;21066;-84
2021/09/24 08:11:44;;;;;;;7.22;1.40;;;;;;;14.71;70.53;99986.06;1773335;79;21612;-84
2021/09/24 08:14:10;;;;;;;11.80;2.35;;;;;;;14.78;69.69;99992.23;1795302;79;21055;-84
2021/09/24 08:16:37;;;;;;;8.30;1.65;;;;;;;14.85;70.01;99983.38;1795504;79;21081;-84
2021/09/24 08:19:04;;;;;;;11.45;2.17;;;;;;;14.95;69.82;99986.41;1795320;79;21055;-83
2021/09/24 08:21:30;;;;;;;9.08;2.20;;;;;;;15.01;69.57;99995.22;1795533;79;21598;-84
2021/09/24 08:23:57;;;;;;;7.35;2.37;;;;;;;15.11;69.55;99983.23;1795529;79;21627;-84
2021/09/24 08:26:24;;;;;;;7.33;2.33;;;;;;;15.19;69.37;99991.14;1795325;79;21039;-84
2021/09/24 08:28:50;;;;;;;8.35;1.90;;;;;;;15.25;69.00;99996.85;1795379;79;21039;-84
2021/09/24 08:31:17;;;;;;;6.05;1.52;;;;;;;15.27;68.64;100001.24;1795341;79;21070;-84
2021/09/24 08:33:46;;;;;;;8.25;1.80;;;;;;;15.27;67.96;99999.05;1795462;79;21070;-84
2021/09/24 08:36:13;;;;;;;5.75;1.52;;;;;;;15.25;67.53;100009.66;1795321;79;21770;-84
2021/09/24 08:38:39;;;;;;;6.22;1.47;;;;;;;15.23;66.97;100027.34;1795638;79;21086;-84
2021/09/24 08:41:06;;;;;;;4.47;1.22;;;;;;;15.19;66.25;100013.68;1795397;79;21675;-84
2021/09/24 08:43:37;;;;;;;4.28;1.37;;;;;;;15.18;66.04;100037.53;1795099;79;21074;-84
2021/09/24 08:46:02;;;;;;;5.05;1.30;;;;;;;15.13;65.44;100014.59;1795067;79;21090;-84
2021/09/24 08:48:29;;;;;;;6.70;1.55;;;;;;;15.11;65.29;100022.12;1795494;79;21764;-84
2021/09/24 08:50:56;;;;;;;5.97;1.47;;;;;;;15.14;65.65;100032.70;1795513;79;21055;-84
2021/09/24 08:53:24;;;;;;;4.53;1.30;;;;;;;15.16;64.81;100046.40;1772965;79;33993;-84
2021/09/24 08:55:51;;;;;;;3.90;1.47;;;;;;;15.17;64.65;100027.39;1795602;79;21490;-84
2021/09/24 08:58:18;;;;;;;10.55;1.87;;;;;;;15.19;63.83;100032.23;1795274;79;21028;-84
2021/09/24 09:00:45;;;;;;;6.85;1.50;;;;;;;15.23;64.64;100034.42;1772861;79;21737;-84
2021/09/24 09:03:14;;;;;;;6.95;1.27;;;;;;;15.38;64.63;100043.61;1733200;82;21059;-84
2021/09/24 09:05:49;;;;;;;3.62;1.20;;;;;;;15.56;64.48;100047.94;1767790;81;21550;-84
2021/09/24 09:08:27;;;;;;;7.05;1.40;;;;;;;15.61;63.84;100039.92;1745564;81;21571;-85
2021/09/24 09:11:01;;;;;;;9.38;1.47;;;;;;;15.63;64.00;100050.95;1767981;80;20976;-84
2021/09/24 09:13:44;;;;;;;4.08;1.30;;;;;;;15.64;63.89;100048.75;1767664;81;22577;-84
2021/09/24 09:16:21;;;;;;;4.63;1.27;;;;;;;15.59;63.58;100046.56;1745859;81;21507;-85
2021/09/24 09:18:49;;;;;;;4.92;1.85;;;;;;;15.66;63.09;100056.25;1767649;79;21054;-84
2021/09/24 09:21:20;;;;;;;15.45;1.77;;;;;;;15.61;62.53;100051.41;1745536;81;21599;-85
2021/09/24 09:23:54;;;;;;;5.22;1.45;;;;;;;15.60;62.91;100061.61;1767558;80;21130;-84
2021/09/24 09:26:21;;;;;;;5.00;1.30;;;;;;;15.72;63.35;100073.90;1767410;81;22585;-84
2021/09/24 09:28:58;;;;;;;4.08;1.25;;;;;;;15.85;63.30;100081.36;1736781;82;21105;-84
2021/09/24 09:31:32;;;;;;;3.12;1.22;;;;;;;15.96;62.59;100075.98;1729656;82;21091;-84
2021/09/24 09:34:06;;;;;;;6.17;1.40;;;;;;;16.09;63.16;100083.83;1745313;82;21066;-85
2021/09/24 09:36:35;;;;;;;9.83;1.77;;;;;;;16.38;63.19;100086.66;1767466;81;21054;-84
2021/09/24 09:39:12;;;;;;;7.08;1.72;;;;;;;16.52;62.30;100099.83;1745221;81;22368;-85
2021/09/24 09:41:53;;;;;;;8.93;1.85;;;;;;;16.55;62.58;100094.46;1766404;80;21073;-85
2021/09/24 09:44:28;;;;;;;7.20;1.62;;;;;;;16.60;62.00;100094.44;1767293;80;21042;-84
2021/09/24 09:46:55;;;;;;;7.58;1.50;;;;;;;16.52;61.25;100105.14;1736698;81;21026;-84
2021/09/24 09:49:21;;;;;;;5.65;1.27;;;;;;;16.37;61.29;100082.26;1767152;81;21115;-84
2021/09/24 09:51:48;;;;;;;8.63;1.50;;;;;;;16.25;61.57;100096.51;1692236;82;21830;-84
2021/09/24 09:54:30;;;;;;;6.70;1.85;;;;;;;16.17;61.65;100103.67;1766317;80;21074;-85
2021/09/24 09:57:16;;;;;;;6.22;1.57;;;;;;;16.09;61.65;100101.08;1736747;82;21054;-85
2021/09/24 09:59:51;;;;;;;5.47;1.55;;;;;;;15.97;61.78;100101.16;1735976;82;21202;-84
2021/09/24 10:02:26;;;;;;;6.65;1.57;;;;;;;15.91;61.71;100090.59;1767556;80;21110;-84
2021/09/24 10:04:53;;;;;;;15.63;2.37;;;;;;;15.85;61.92;100100.81;1766953;80;21419;-84
2021/09/24 10:07:24;;;;;;;8.50;1.60;;;;;;;15.86;61.98;100110.97;1736632;82;21065;-85
2021/09/24 10:10:15;;;;;;;7.65;1.52;;;;;;;15.89;61.96;100121.13;1767565;80;21019;-84
2021/09/24 10:12:43;;;;;;;9.50;1.35;;;;;;;15.89;61.93;100117.59;1736583;82;20990;-84
2021/09/24 10:15:12;;;;;;;7.33;1.70;;;;;;;15.92;62.19;100126.88;1768093;80;21066;-84
2021/09/24 10:17:39;;;;;;;12.95;2.10;;;;;;;16.03;62.24;100126.78;1737182;82;21838;-84
2021/09/24 10:20:07;;;;;;;12.82;2.40;;;;;;;16.07;62.34;100133.40;1767925;80;21030;-85
2021/09/24 10:22:34;;;;;;;6.75;1.60;;;;;;;16.08;62.23;100138.25;1736949;82;21054;-84
2021/09/24 10:25:01;;;;;;;10.93;2.20;;;;;;;16.07;62.51;100141.36;1767900;80;21011;-85
2021/09/24 10:27:36;;;;;;;9.80;2.77;;;;;;;16.17;62.65;100142.63;1737170;82;21549;-85
2021/09/24 10:30:10;;;;;;;7.42;2.10;;;;;;;16.18;62.57;100135.98;1767490;80;21757;-84
2021/09/24 10:32:40;;;;;;;8.58;2.45;;;;;;;16.19;62.43;100147.47;1737225;82;27689;-84
2021/09/24 10:35:10;;;;;;;8.53;2.00;;;;;;;16.18;62.02;100167.84;1736200;82;21075;-84
2021/09/24 10:37:39;;;;;;;8.30;2.50;;;;;;;16.00;61.95;100174.14;1768051;80;21082;-84
2021/09/24 10:40:26;;;;;;;7.25;2.55;;;;;;;15.81;62.07;100163.22;1744918;81;21137;-84
2021/09/24 10:43:01;;;;;;;7.55;2.05;;;;;;;15.76;62.31;100172.97;1767445;80;21774;-83
2021/09/24 10:45:41;;;;;;;13.25;3.60;;;;;;;15.79;62.42;100176.49;1767787;80;21528;-84
2021/09/24 10:48:25;;;;;;;10.63;2.70;;;;;;;15.93;62.21;100167.11;1737224;82;21007;-84
2021/09/24 10:50:57;;;;;;;8.88;2.17;;;;;;;16.11;61.80;100165.66;1768082;80;21411;-83
2021/09/24 10:53:31;;;;;;;8.40;2.25;;;;;;;16.26;61.42;100172.64;1736950;82;21109;-83
2021/09/24 10:56:05;;;;;;;5.55;1.90;;;;;;;16.30;61.47;100173.50;1766992;81;21946;-83
2021/09/24 10:58:41;;;;;;;6.62;2.30;;;;;;;16.37;61.11;100175.22;1737102;82;22061;-83
2021/09/24 11:01:17;;;;;;;10.05;2.27;;;;;;;16.47;60.70;100180.88;1767271;80;21026;-84
2021/09/24 11:04:00;;;;;;;10.30;2.40;;;;;;;16.73;60.58;100188.20;1735425;82;21239;-84
2021/09/24 11:06:49;;;;;;;6.65;2.10;;;;;;;16.89;60.20;100195.14;1735969;82;21516;-84
2021/09/24 11:09:18;;;;;;;9.95;2.80;;;;;;;16.95;59.76;100201.75;1766521;80;21703;-84
2021/09/24 11:11:48;;;;;;;6.85;2.15;;;;;;;16.87;58.86;100200.50;1767066;79;21639;-84
2021/09/24 11:14:34;;;;;;;11.48;2.50;;;;;;;16.80;58.85;100194.77;1744718;81;21084;-84
2021/09/24 11:17:05;;;;;;;6.78;2.20;;;;;;;16.85;59.11;100212.03;1767312;80;22235;-84
2021/09/24 11:19:45;;;;;;;11.75;2.80;;;;;;;16.90;59.10;100196.47;1742159;82;21573;-84
2021/09/24 11:22:25;;;;;;;11.40;2.37;;;;;;;16.91;58.89;100198.67;1767417;81;21743;-84
2021/09/24 11:25:01;;;;;;;8.45;2.20;;;;;;;16.96;58.93;100199.52;1733227;82;20995;-84
2021/09/24 11:27:35;;;;;;;7.05;2.00;;;;;;;16.99;58.76;100208.80;1767692;80;21043;-84
2021/09/24 11:30:07;;;;;;;8.33;2.92;;;;;;;17.04;58.75;100218.05;1736671;82;21015;-84
2021/09/24 11:32:48;;;;;;;6.72;2.30;;;;;;;17.10;58.47;100224.20;1767461;80;21729;-84
2021/09/24 11:35:19;;;;;;;10.23;2.98;;;;;;;17.03;58.45;100235.78;1736701;82;21767;-85